sensor_id;sensor_type;location;lat;lon;timestamp;pressure;altitude;pressure_sealevel;temperature;humidity
76732;BME280;65656;51.130;13.658;2023-07-29T00:03:26;98650.97;;;17.84;100.00
76732;BME280;65656;51.130;13.658;2023-07-29T00:07:29;98642.78;;;17.78;100.00
76732;BME280;65656;51.130;13.658;2023-07-29T00:11:31;98645.66;;;17.73;100.00
76732;BME280;65656;51.130;13.658;2023-07-29T00:15:32;98650.72;;;17.71;100.00
76732;BME280;65656;51.130;13.658;2023-07-29T00:19:34;98653.47;;;17.71;100.00
76732;BME280;65656;51.130;13.658;2023-07-29T00:23:36;98639.09;;;17.69;100.00
76732;BME280;65656;51.130;13.658;2023-07-29T00:27:38;98636.06;;;17.57;100.00
76732;BME280;65656;51.130;13.658;2023-07-29T00:31:40;98642.53;;;17.44;100.00
76732;BME280;65656;51.130;13.658;2023-07-29T00:35:41;98644.38;;;17.35;100.00
76732;BME280;65656;51.130;13.658;2023-07-29T00:39:44;98637.06;;;17.16;100.00
76732;BME280;65656;51.130;13.658;2023-07-29T00:43:46;98635.97;;;17.04;100.00
76732;BME280;65656;51.130;13.658;2023-07-29T00:47:47;98635.28;;;16.98;100.00
76732;BME280;65656;51.130;13.658;2023-07-29T00:51:49;98633.75;;;16.92;100.00
76732;BME280;65656;51.130;13.658;2023-07-29T00:55:52;98632.44;;;16.89;100.00
76732;BME280;65656;51.130;13.658;2023-07-29T00:59:54;98627.50;;;16.86;100.00
76732;BME280;65656;51.130;13.658;2023-07-29T01:03:55;98625.06;;;16.85;100.00
76732;BME280;65656;51.130;13.658;2023-07-29T01:08:05;98627.44;;;16.78;100.00
76732;BME280;65656;51.130;13.658;2023-07-29T01:12:16;98622.63;;;16.69;100.00
76732;BME280;65656;51.130;13.658;2023-07-29T01:16:27;98625.28;;;16.61;100.00
76732;BME280;65656;51.130;13.658;2023-07-29T01:20:32;98617.28;;;16.59;100.00
76732;BME280;65656;51.130;13.658;2023-07-29T01:24:36;98618.72;;;16.57;100.00
76732;BME280;65656;51.130;13.658;2023-07-29T01:28:37;98616.47;;;16.59;100.00
76732;BME280;65656;51.130;13.658;2023-07-29T01:32:43;98614.53;;;16.59;100.00
76732;BME280;65656;51.130;13.658;2023-07-29T01:36:46;98613.38;;;16.60;100.00
76732;BME280;65656;51.130;13.658;2023-07-29T01:40:50;98613.34;;;16.88;100.00
76732;BME280;65656;51.130;13.658;2023-07-29T01:44:52;98614.63;;;16.82;100.00
76732;BME280;65656;51.130;13.658;2023-07-29T01:48:53;98616.13;;;16.88;100.00
76732;BME280;65656;51.130;13.658;2023-07-29T01:52:55;98616.13;;;16.88;100.00
76732;BME280;65656;51.130;13.658;2023-07-29T01:56:58;98621.31;;;17.03;100.00
76732;BME280;65656;51.130;13.658;2023-07-29T02:00:59;98611.25;;;17.07;100.00
76732;BME280;65656;51.130;13.658;2023-07-29T02:05:01;98612.25;;;17.11;100.00
76732;BME280;65656;51.130;13.658;2023-07-29T02:09:03;98610.41;;;17.20;100.00
76732;BME280;65656;51.130;13.658;2023-07-29T02:13:06;98613.25;;;17.29;100.00
76732;BME280;65656;51.130;13.658;2023-07-29T02:17:07;98605.31;;;17.14;100.00
76732;BME280;65656;51.130;13.658;2023-07-29T02:21:09;98601.66;;;17.05;100.00
76732;BME280;65656;51.130;13.658;2023-07-29T02:25:11;98594.66;;;17.07;100.00
76732;BME280;65656;51.130;13.658;2023-07-29T02:29:13;98607.75;;;17.15;100.00
76732;BME280;65656;51.130;13.658;2023-07-29T02:33:15;98602.22;;;17.15;100.00
76732;BME280;65656;51.130;13.658;2023-07-29T02:37:17;98610.16;;;17.31;100.00
76732;BME280;65656;51.130;13.658;2023-07-29T02:41:18;98611.16;;;17.35;100.00
76732;BME280;65656;51.130;13.658;2023-07-29T02:45:21;98620.66;;;17.42;100.00
76732;BME280;65656;51.130;13.658;2023-07-29T02:49:23;98626.34;;;17.37;100.00
76732;BME280;65656;51.130;13.658;2023-07-29T02:53:24;98628.91;;;17.34;100.00
76732;BME280;65656;51.130;13.658;2023-07-29T02:57:26;98629.84;;;17.29;100.00
76732;BME280;65656;51.130;13.658;2023-07-29T03:01:29;98640.13;;;17.29;100.00
76732;BME280;65656;51.130;13.658;2023-07-29T03:05:30;98640.28;;;17.32;100.00
76732;BME280;65656;51.130;13.658;2023-07-29T03:09:32;98646.66;;;17.55;100.00
76732;BME280;65656;51.130;13.658;2023-07-29T03:13:33;98633.84;;;17.59;100.00
76732;BME280;65656;51.130;13.658;2023-07-29T03:17:36;98637.22;;;17.56;100.00
76732;BME280;65656;51.130;13.658;2023-07-29T03:21:38;98648.19;;;17.61;100.00
76732;BME280;65656;51.130;13.658;2023-07-29T03:25:39;98645.91;;;17.63;100.00
76732;BME280;65656;51.130;13.658;2023-07-29T03:29:41;98640.13;;;17.73;100.00
76732;BME280;65656;51.130;13.658;2023-07-29T03:33:44;98640.66;;;17.75;100.00
76732;BME280;65656;51.130;13.658;2023-07-29T03:37:45;98627.97;;;17.83;100.00
76732;BME280;65656;51.130;13.658;2023-07-29T03:41:47;98630.53;;;18.02;100.00
76732;BME280;65656;51.130;13.658;2023-07-29T03:45:49;98630.44;;;18.16;100.00
76732;BME280;65656;51.130;13.658;2023-07-29T03:49:52;98621.44;;;18.10;100.00
76732;BME280;65656;51.130;13.658;2023-07-29T03:53:54;98616.25;;;18.17;100.00
76732;BME280;65656;51.130;13.658;2023-07-29T03:57:55;98623.41;;;18.18;100.00
76732;BME280;65656;51.130;13.658;2023-07-29T04:01:57;98622.81;;;18.21;100.00
76732;BME280;65656;51.130;13.658;2023-07-29T04:06:00;98626.06;;;18.23;100.00
76732;BME280;65656;51.130;13.658;2023-07-29T04:10:01;98632.28;;;18.29;100.00
76732;BME280;65656;51.130;13.658;2023-07-29T04:14:03;98633.59;;;18.31;100.00
76732;BME280;65656;51.130;13.658;2023-07-29T04:18:05;98639.50;;;18.38;100.00
76732;BME280;65656;51.130;13.658;2023-07-29T04:22:08;98631.66;;;18.41;100.00
76732;BME280;65656;51.130;13.658;2023-07-29T04:26:09;98630.41;;;18.47;100.00
76732;BME280;65656;51.130;13.658;2023-07-29T04:30:11;98624.84;;;18.47;100.00
76732;BME280;65656;51.130;13.658;2023-07-29T04:34:12;98629.13;;;18.53;100.00
76732;BME280;65656;51.130;13.658;2023-07-29T04:38:15;98623.91;;;18.60;100.00
76732;BME280;65656;51.130;13.658;2023-07-29T04:42:17;98626.53;;;18.65;100.00
76732;BME280;65656;51.130;13.658;2023-07-29T04:46:18;98631.97;;;18.70;100.00
76732;BME280;65656;51.130;13.658;2023-07-29T04:50:20;98628.53;;;18.73;100.00
76732;BME280;65656;51.130;13.658;2023-07-29T04:54:23;98627.91;;;18.76;100.00
76732;BME280;65656;51.130;13.658;2023-07-29T04:58:24;98628.25;;;18.83;100.00
76732;BME280;65656;51.130;13.658;2023-07-29T05:02:26;98622.03;;;18.86;100.00
76732;BME280;65656;51.130;13.658;2023-07-29T05:06:27;98619.41;;;18.99;100.00
76732;BME280;65656;51.130;13.658;2023-07-29T05:10:31;98620.59;;;19.15;100.00
76732;BME280;65656;51.130;13.658;2023-07-29T05:14:33;98620.75;;;19.27;100.00
76732;BME280;65656;51.130;13.658;2023-07-29T05:18:34;98614.22;;;19.40;100.00
76732;BME280;65656;51.130;13.658;2023-07-29T05:22:36;98616.50;;;19.56;100.00
76732;BME280;65656;51.130;13.658;2023-07-29T05:26:39;98616.84;;;19.63;100.00
76732;BME280;65656;51.130;13.658;2023-07-29T05:30:40;98608.31;;;19.68;98.99
76732;BME280;65656;51.130;13.658;2023-07-29T05:34:44;98610.94;;;19.73;99.55
76732;BME280;65656;51.130;13.658;2023-07-29T05:38:46;98600.13;;;19.80;98.82
76732;BME280;65656;51.130;13.658;2023-07-29T05:42:49;98595.03;;;19.91;97.62
76732;BME280;65656;51.130;13.658;2023-07-29T05:46:50;98603.50;;;20.03;96.66
76732;BME280;65656;51.130;13.658;2023-07-29T05:50:52;98588.56;;;20.08;95.31
76732;BME280;65656;51.130;13.658;2023-07-29T05:54:53;98583.13;;;20.20;95.88
76732;BME280;65656;51.130;13.658;2023-07-29T05:58:56;98577.16;;;20.39;95.93
76732;BME280;65656;51.130;13.658;2023-07-29T06:02:58;98580.03;;;20.59;95.28
76732;BME280;65656;51.130;13.658;2023-07-29T06:06:59;98581.75;;;20.73;93.96
76732;BME280;65656;51.130;13.658;2023-07-29T06:11:01;98580.47;;;20.70;93.64
76732;BME280;65656;51.130;13.658;2023-07-29T06:15:05;98577.13;;;20.77;92.26
76732;BME280;65656;51.130;13.658;2023-07-29T06:19:07;98580.69;;;20.86;91.94
76732;BME280;65656;51.130;13.658;2023-07-29T06:23:08;98584.16;;;21.25;89.86
76732;BME280;65656;51.130;13.658;2023-07-29T06:27:10;98587.63;;;21.42;89.44
76732;BME280;65656;51.130;13.658;2023-07-29T06:31:13;98581.75;;;21.56;89.55
76732;BME280;65656;51.130;13.658;2023-07-29T06:35:15;98582.50;;;21.78;85.34
76732;BME280;65656;51.130;13.658;2023-07-29T06:39:16;98587.00;;;22.15;80.86
76732;BME280;65656;51.130;13.658;2023-07-29T06:43:18;98596.28;;;22.07;79.23
76732;BME280;65656;51.130;13.658;2023-07-29T06:47:21;98595.34;;;22.03;80.60
76732;BME280;65656;51.130;13.658;2023-07-29T06:51:22;98592.28;;;21.84;82.96
76732;BME280;65656;51.130;13.658;2023-07-29T06:55:24;98593.22;;;21.88;81.04
76732;BME280;65656;51.130;13.658;2023-07-29T06:59:25;98591.81;;;21.94;83.66
76732;BME280;65656;51.130;13.658;2023-07-29T07:03:28;98588.97;;;22.03;83.00
76732;BME280;65656;51.130;13.658;2023-07-29T07:07:30;98583.50;;;22.06;81.83
76732;BME280;65656;51.130;13.658;2023-07-29T07:11:32;98583.06;;;22.16;79.13
76732;BME280;65656;51.130;13.658;2023-07-29T07:15:33;98581.91;;;22.30;76.07
76732;BME280;65656;51.130;13.658;2023-07-29T07:19:36;98580.53;;;22.60;75.58
76732;BME280;65656;51.130;13.658;2023-07-29T07:23:38;98579.59;;;22.80;74.94
76732;BME280;65656;51.130;13.658;2023-07-29T07:27:40;98571.22;;;22.68;75.37
76732;BME280;65656;51.130;13.658;2023-07-29T07:31:49;98561.41;;;22.87;75.86
76732;BME280;65656;51.130;13.658;2023-07-29T07:35:52;98546.84;;;23.33;73.08
76732;BME280;65656;51.130;13.658;2023-07-29T07:39:54;98552.75;;;23.44;70.17
76732;BME280;65656;51.130;13.658;2023-07-29T07:43:56;98530.66;;;23.55;69.59
76732;BME280;65656;51.130;13.658;2023-07-29T07:47:57;98531.19;;;23.45;69.55
76732;BME280;65656;51.130;13.658;2023-07-29T07:52:00;98535.16;;;23.44;69.68
76732;BME280;65656;51.130;13.658;2023-07-29T07:56:03;98522.84;;;23.32;69.42
76732;BME280;65656;51.130;13.658;2023-07-29T08:00:05;98526.47;;;23.33;66.85
76732;BME280;65656;51.130;13.658;2023-07-29T08:04:07;98516.94;;;23.50;65.88
76732;BME280;65656;51.130;13.658;2023-07-29T08:08:10;98513.78;;;23.35;65.19
76732;BME280;65656;51.130;13.658;2023-07-29T08:12:12;98521.47;;;23.26;63.64
76732;BME280;65656;51.130;13.658;2023-07-29T08:16:13;98507.69;;;23.33;64.44
76732;BME280;65656;51.130;13.658;2023-07-29T08:20:15;98512.88;;;23.75;64.67
76732;BME280;65656;51.130;13.658;2023-07-29T08:24:18;98505.72;;;24.25;62.28
76732;BME280;65656;51.130;13.658;2023-07-29T08:28:20;98502.38;;;24.51;60.94
76732;BME280;65656;51.130;13.658;2023-07-29T08:32:23;98510.00;;;24.70;58.41
76732;BME280;65656;51.130;13.658;2023-07-29T08:36:24;98510.44;;;24.53;58.97
76732;BME280;65656;51.130;13.658;2023-07-29T08:40:29;98519.50;;;24.65;58.46
76732;BME280;65656;51.130;13.658;2023-07-29T08:44:35;98511.19;;;24.69;60.31
76732;BME280;65656;51.130;13.658;2023-07-29T08:48:42;98519.53;;;24.50;60.05
76732;BME280;65656;51.130;13.658;2023-07-29T08:52:44;98522.72;;;24.16;62.14
76732;BME280;65656;51.130;13.658;2023-07-29T08:56:48;98520.28;;;24.15;60.54
76732;BME280;65656;51.130;13.658;2023-07-29T09:00:50;98523.78;;;24.28;61.17
76732;BME280;65656;51.130;13.658;2023-07-29T09:04:52;98517.31;;;24.39;60.21
76732;BME280;65656;51.130;13.658;2023-07-29T09:08:53;98521.59;;;24.68;60.79
76732;BME280;65656;51.130;13.658;2023-07-29T09:12:57;98522.38;;;25.04;61.17
76732;BME280;65656;51.130;13.658;2023-07-29T09:16:58;98518.16;;;24.94;59.38
76732;BME280;65656;51.130;13.658;2023-07-29T09:21:01;98514.31;;;25.02;60.22
76732;BME280;65656;51.130;13.658;2023-07-29T09:25:02;98520.19;;;24.97;60.96
76732;BME280;65656;51.130;13.658;2023-07-29T09:29:05;98502.28;;;25.02;61.69
76732;BME280;65656;51.130;13.658;2023-07-29T09:33:07;98505.78;;;25.34;60.39
76732;BME280;65656;51.130;13.658;2023-07-29T09:37:09;98503.25;;;25.29;58.58
76732;BME280;65656;51.130;13.658;2023-07-29T09:41:12;98505.06;;;25.18;59.23
76732;BME280;65656;51.130;13.658;2023-07-29T09:45:20;98500.75;;;25.43;58.24
76732;BME280;65656;51.130;13.658;2023-07-29T09:49:22;98500.16;;;25.53;58.42
76732;BME280;65656;51.130;13.658;2023-07-29T09:53:24;98512.84;;;25.47;56.95
76732;BME280;65656;51.130;13.658;2023-07-29T09:57:26;98484.81;;;25.47;57.83
76732;BME280;65656;51.130;13.658;2023-07-29T10:01:29;98496.69;;;25.83;59.13
76732;BME280;65656;51.130;13.658;2023-07-29T10:05:32;98485.09;;;25.42;56.30
76732;BME280;65656;51.130;13.658;2023-07-29T10:09:34;98489.47;;;25.01;59.51
76732;BME280;65656;51.130;13.658;2023-07-29T10:13:37;98496.41;;;24.53;64.99
76732;BME280;65656;51.130;13.658;2023-07-29T10:17:40;98493.19;;;24.19;68.52
76732;BME280;65656;51.130;13.658;2023-07-29T10:21:43;98490.50;;;24.38;67.32
76732;BME280;65656;51.130;13.658;2023-07-29T10:25:47;98479.78;;;24.60;63.39
76732;BME280;65656;51.130;13.658;2023-07-29T10:29:52;98472.50;;;24.24;72.99
76732;BME280;65656;51.130;13.658;2023-07-29T10:33:57;98485.50;;;24.48;66.82
76732;BME280;65656;51.130;13.658;2023-07-29T10:37:59;98477.88;;;25.02;60.32
76732;BME280;65656;51.130;13.658;2023-07-29T10:42:05;98471.69;;;25.32;57.57
76732;BME280;65656;51.130;13.658;2023-07-29T10:46:17;98474.78;;;25.27;58.67
76732;BME280;65656;51.130;13.658;2023-07-29T10:50:21;98474.75;;;25.23;57.81
76732;BME280;65656;51.130;13.658;2023-07-29T10:54:23;98478.34;;;25.05;59.87
76732;BME280;65656;51.130;13.658;2023-07-29T10:58:24;98482.78;;;25.25;59.59
76732;BME280;65656;51.130;13.658;2023-07-29T11:02:30;98468.63;;;25.18;59.17
76732;BME280;65656;51.130;13.658;2023-07-29T11:11:14;98460.28;;;25.44;59.33
76732;BME280;65656;51.130;13.658;2023-07-29T11:15:18;98454.75;;;25.25;58.77
76732;BME280;65656;51.130;13.658;2023-07-29T11:19:21;98451.78;;;24.98;60.05
76732;BME280;65656;51.130;13.658;2023-07-29T11:23:28;98447.63;;;24.73;60.96
76732;BME280;65656;51.130;13.658;2023-07-29T11:27:31;98459.16;;;24.68;59.63
76732;BME280;65656;51.130;13.658;2023-07-29T11:31:39;98467.78;;;24.59;60.44
76732;BME280;65656;51.130;13.658;2023-07-29T11:35:41;98465.72;;;24.40;61.03
76732;BME280;65656;51.130;13.658;2023-07-29T11:39:44;98457.94;;;24.50;61.64
76732;BME280;65656;51.130;13.658;2023-07-29T11:43:47;98455.97;;;24.34;62.45
76732;BME280;65656;51.130;13.658;2023-07-29T11:47:48;98453.81;;;24.12;63.83
76732;BME280;65656;51.130;13.658;2023-07-29T11:51:50;98450.03;;;24.04;65.47
76732;BME280;65656;51.130;13.658;2023-07-29T11:55:52;98443.03;;;23.95;61.81
76732;BME280;65656;51.130;13.658;2023-07-29T11:59:55;98440.84;;;23.88;62.37
76732;BME280;65656;51.130;13.658;2023-07-29T12:03:57;98443.22;;;23.70;63.40
76732;BME280;65656;51.130;13.658;2023-07-29T12:07:59;98457.13;;;23.82;63.35
76732;BME280;65656;51.130;13.658;2023-07-29T12:12:01;98462.16;;;23.61;64.80
76732;BME280;65656;51.130;13.658;2023-07-29T12:16:04;98440.41;;;24.02;63.56
76732;BME280;65656;51.130;13.658;2023-07-29T12:20:08;98444.41;;;24.52;63.09
76732;BME280;65656;51.130;13.658;2023-07-29T12:24:11;98437.56;;;24.33;63.40
76732;BME280;65656;51.130;13.658;2023-07-29T12:28:13;98421.09;;;24.48;62.24
76732;BME280;65656;51.130;13.658;2023-07-29T12:32:16;98424.19;;;24.81;62.48
76732;BME280;65656;51.130;13.658;2023-07-29T12:36:18;98417.31;;;24.98;62.19
76732;BME280;65656;51.130;13.658;2023-07-29T12:40:22;98412.84;;;24.74;61.11
76732;BME280;65656;51.130;13.658;2023-07-29T12:44:25;98409.78;;;25.64;58.87
76732;BME280;65656;51.130;13.658;2023-07-29T12:48:28;98408.84;;;25.56;59.86
76732;BME280;65656;51.130;13.658;2023-07-29T12:52:30;98410.16;;;25.85;61.08
76732;BME280;65656;51.130;13.658;2023-07-29T12:56:33;98399.41;;;25.22;61.08
76732;BME280;65656;51.130;13.658;2023-07-29T13:00:35;98395.06;;;25.24;61.60
76732;BME280;65656;51.130;13.658;2023-07-29T13:04:38;98398.09;;;24.96;61.65
76732;BME280;65656;51.130;13.658;2023-07-29T13:08:40;98390.38;;;25.09;62.77
76732;BME280;65656;51.130;13.658;2023-07-29T13:12:41;98395.59;;;24.53;61.85
76732;BME280;65656;51.130;13.658;2023-07-29T13:16:43;98391.75;;;24.99;60.78
76732;BME280;65656;51.130;13.658;2023-07-29T13:20:46;98389.47;;;25.47;59.49
76732;BME280;65656;51.130;13.658;2023-07-29T13:24:47;98401.19;;;25.30;59.92
76732;BME280;65656;51.130;13.658;2023-07-29T13:28:49;98391.97;;;26.28;58.73
76732;BME280;65656;51.130;13.658;2023-07-29T13:32:50;98383.31;;;28.41;50.95
76732;BME280;65656;51.130;13.658;2023-07-29T13:36:53;98384.06;;;28.30;46.70
76732;BME280;65656;51.130;13.658;2023-07-29T13:40:55;98385.59;;;27.29;51.19
76732;BME280;65656;51.130;13.658;2023-07-29T13:44:57;98390.78;;;26.89;50.39
76732;BME280;65656;51.130;13.658;2023-07-29T13:48:58;98390.13;;;29.30;44.17
76732;BME280;65656;51.130;13.658;2023-07-29T13:53:01;98393.34;;;30.54;42.06
76732;BME280;65656;51.130;13.658;2023-07-29T13:57:03;98395.03;;;29.51;42.80
76732;BME280;65656;51.130;13.658;2023-07-29T14:01:05;98390.19;;;29.62;42.77
76732;BME280;65656;51.130;13.658;2023-07-29T14:05:07;98394.75;;;31.78;38.79
76732;BME280;65656;51.130;13.658;2023-07-29T14:09:10;98386.53;;;33.04;36.42
76732;BME280;65656;51.130;13.658;2023-07-29T14:13:12;98375.13;;;33.07;35.89
76732;BME280;65656;51.130;13.658;2023-07-29T14:17:13;98385.44;;;31.74;38.60
76732;BME280;65656;51.130;13.658;2023-07-29T14:21:15;98379.41;;;32.16;37.14
76732;BME280;65656;51.130;13.658;2023-07-29T14:25:18;98368.41;;;29.70;41.69
76732;BME280;65656;51.130;13.658;2023-07-29T14:29:19;98350.69;;;32.14;39.54
76732;BME280;65656;51.130;13.658;2023-07-29T14:33:21;98350.03;;;32.41;35.48
76732;BME280;65656;51.130;13.658;2023-07-29T14:37:22;98340.25;;;33.64;34.69
76732;BME280;65656;51.130;13.658;2023-07-29T14:41:25;98341.59;;;31.44;36.13
76732;BME280;65656;51.130;13.658;2023-07-29T14:45:27;98347.69;;;32.29;35.84
76732;BME280;65656;51.130;13.658;2023-07-29T14:49:28;98341.53;;;32.71;35.09
76732;BME280;65656;51.130;13.658;2023-07-29T14:53:30;98340.53;;;31.17;37.35
76732;BME280;65656;51.130;13.658;2023-07-29T14:57:33;98337.44;;;32.04;35.88
76732;BME280;65656;51.130;13.658;2023-07-29T15:01:34;98347.25;;;30.71;37.76
76732;BME280;65656;51.130;13.658;2023-07-29T15:05:36;98334.28;;;32.70;35.44
76732;BME280;65656;51.130;13.658;2023-07-29T15:09:38;98338.03;;;32.94;34.23
76732;BME280;65656;51.130;13.658;2023-07-29T15:13:41;98341.41;;;32.86;34.56
76732;BME280;65656;51.130;13.658;2023-07-29T15:17:42;98325.81;;;32.33;34.90
76732;BME280;65656;51.130;13.658;2023-07-29T15:21:44;98332.31;;;33.52;32.52
76732;BME280;65656;51.130;13.658;2023-07-29T15:25:46;98338.13;;;32.15;34.57
76732;BME280;65656;51.130;13.658;2023-07-29T15:29:49;98334.34;;;31.88;35.48
76732;BME280;65656;51.130;13.658;2023-07-29T15:33:50;98347.25;;;30.64;36.62
76732;BME280;65656;51.130;13.658;2023-07-29T15:37:52;98345.09;;;31.59;34.74
76732;BME280;65656;51.130;13.658;2023-07-29T15:41:54;98349.25;;;31.47;36.89
76732;BME280;65656;51.130;13.658;2023-07-29T15:45:56;98355.88;;;30.07;37.96
76732;BME280;65656;51.130;13.658;2023-07-29T15:49:58;98344.66;;;28.38;41.86
76732;BME280;65656;51.130;13.658;2023-07-29T15:54:00;98352.88;;;26.76;45.46
76732;BME280;65656;51.130;13.658;2023-07-29T15:58:01;98356.34;;;26.06;48.27
76732;BME280;65656;51.130;13.658;2023-07-29T16:02:05;98358.91;;;25.42;50.18
76732;BME280;65656;51.130;13.658;2023-07-29T16:06:07;98365.50;;;25.08;51.81
76732;BME280;65656;51.130;13.658;2023-07-29T16:10:08;98376.25;;;25.06;53.00
76732;BME280;65656;51.130;13.658;2023-07-29T16:14:10;98384.41;;;24.72;53.34
76732;BME280;65656;51.130;13.658;2023-07-29T16:18:13;98382.84;;;24.55;55.00
76732;BME280;65656;51.130;13.658;2023-07-29T16:22:15;98405.50;;;24.31;55.53
76732;BME280;65656;51.130;13.658;2023-07-29T16:26:16;98442.50;;;24.05;56.35
76732;BME280;65656;51.130;13.658;2023-07-29T16:30:18;98551.22;;;22.42;64.75
76732;BME280;65656;51.130;13.658;2023-07-29T16:34:21;98564.00;;;20.56;76.00
76732;BME280;65656;51.130;13.658;2023-07-29T16:38:22;98640.34;;;18.08;100.00
76732;BME280;65656;51.130;13.658;2023-07-29T16:42:27;98603.47;;;16.59;100.00
76732;BME280;65656;51.130;13.658;2023-07-29T16:46:28;98596.22;;;16.22;100.00
76732;BME280;65656;51.130;13.658;2023-07-29T16:50:31;98594.53;;;15.94;100.00
76732;BME280;65656;51.130;13.658;2023-07-29T16:54:33;98598.63;;;15.82;100.00
76732;BME280;65656;51.130;13.658;2023-07-29T16:58:34;98588.59;;;15.73;100.00
76732;BME280;65656;51.130;13.658;2023-07-29T17:02:36;98584.88;;;15.64;100.00
76732;BME280;65656;51.130;13.658;2023-07-29T17:06:39;98574.41;;;15.60;100.00
76732;BME280;65656;51.130;13.658;2023-07-29T17:10:41;98577.13;;;15.66;100.00
76732;BME280;65656;51.130;13.658;2023-07-29T17:14:43;98579.06;;;15.79;100.00
76732;BME280;65656;51.130;13.658;2023-07-29T17:18:44;98571.63;;;15.93;100.00
76732;BME280;65656;51.130;13.658;2023-07-29T17:22:47;98534.00;;;15.97;100.00
76732;BME280;65656;51.130;13.658;2023-07-29T17:26:49;98537.16;;;16.04;100.00
76732;BME280;65656;51.130;13.658;2023-07-29T17:30:51;98542.56;;;16.09;100.00
76732;BME280;65656;51.130;13.658;2023-07-29T17:34:52;98554.34;;;16.15;100.00
76732;BME280;65656;51.130;13.658;2023-07-29T17:38:55;98548.41;;;16.22;100.00
76732;BME280;65656;51.130;13.658;2023-07-29T17:42:57;98539.28;;;16.35;100.00
76732;BME280;65656;51.130;13.658;2023-07-29T17:46:58;98546.53;;;16.58;100.00
76732;BME280;65656;51.130;13.658;2023-07-29T17:51:00;98547.69;;;16.80;100.00
76732;BME280;65656;51.130;13.658;2023-07-29T17:55:03;98550.63;;;16.97;100.00
76732;BME280;65656;51.130;13.658;2023-07-29T17:59:05;98560.63;;;17.07;100.00
76732;BME280;65656;51.130;13.658;2023-07-29T18:03:06;98574.78;;;17.05;100.00
76732;BME280;65656;51.130;13.658;2023-07-29T18:07:08;98575.97;;;16.90;100.00
76732;BME280;65656;51.130;13.658;2023-07-29T18:11:11;98580.22;;;16.74;100.00
76732;BME280;65656;51.130;13.658;2023-07-29T18:15:13;98570.13;;;16.64;100.00
76732;BME280;65656;51.130;13.658;2023-07-29T18:19:14;98554.19;;;16.61;100.00
76732;BME280;65656;51.130;13.658;2023-07-29T18:23:16;98566.88;;;16.62;100.00
76732;BME280;65656;51.130;13.658;2023-07-29T18:27:19;98569.75;;;16.57;100.00
76732;BME280;65656;51.130;13.658;2023-07-29T18:31:21;98574.91;;;16.50;100.00
76732;BME280;65656;51.130;13.658;2023-07-29T18:35:23;98582.25;;;16.41;100.00
76732;BME280;65656;51.130;13.658;2023-07-29T18:39:24;98579.72;;;16.31;100.00
76732;BME280;65656;51.130;13.658;2023-07-29T18:43:27;98576.97;;;16.31;100.00
76732;BME280;65656;51.130;13.658;2023-07-29T18:47:29;98566.63;;;16.23;100.00
76732;BME280;65656;51.130;13.658;2023-07-29T18:51:31;98560.19;;;16.13;100.00
76732;BME280;65656;51.130;13.658;2023-07-29T18:55:32;98566.31;;;16.10;100.00
76732;BME280;65656;51.130;13.658;2023-07-29T18:59:35;98574.72;;;16.05;100.00
76732;BME280;65656;51.130;13.658;2023-07-29T19:03:37;98572.03;;;16.00;100.00
76732;BME280;65656;51.130;13.658;2023-07-29T19:07:39;98576.16;;;15.89;100.00
76732;BME280;65656;51.130;13.658;2023-07-29T19:11:41;98571.84;;;15.83;100.00
76732;BME280;65656;51.130;13.658;2023-07-29T19:15:50;98558.75;;;15.88;100.00
76732;BME280;65656;51.130;13.658;2023-07-29T19:19:55;98581.66;;;15.89;100.00
76732;BME280;65656;51.130;13.658;2023-07-29T19:23:57;98579.00;;;15.84;100.00
76732;BME280;65656;51.130;13.658;2023-07-29T19:27:58;98590.66;;;15.81;100.00
76732;BME280;65656;51.130;13.658;2023-07-29T19:32:01;98586.25;;;15.80;100.00
76732;BME280;65656;51.130;13.658;2023-07-29T19:36:03;98586.34;;;15.75;100.00
76732;BME280;65656;51.130;13.658;2023-07-29T19:40:06;98596.34;;;15.71;100.00
76732;BME280;65656;51.130;13.658;2023-07-29T19:44:08;98581.03;;;15.65;100.00
76732;BME280;65656;51.130;13.658;2023-07-29T19:48:24;98601.00;;;15.56;100.00
76732;BME280;65656;51.130;13.658;2023-07-29T19:52:26;98611.53;;;15.54;100.00
76732;BME280;65656;51.130;13.658;2023-07-29T19:56:27;98613.84;;;15.47;100.00
76732;BME280;65656;51.130;13.658;2023-07-29T20:00:29;98597.28;;;15.47;100.00
76732;BME280;65656;51.130;13.658;2023-07-29T20:04:32;98595.06;;;15.49;100.00
76732;BME280;65656;51.130;13.658;2023-07-29T20:08:33;98600.59;;;15.49;100.00
76732;BME280;65656;51.130;13.658;2023-07-29T20:12:35;98611.19;;;15.42;100.00
76732;BME280;65656;51.130;13.658;2023-07-29T20:16:36;98620.16;;;15.34;100.00
76732;BME280;65656;51.130;13.658;2023-07-29T20:20:39;98615.22;;;15.31;100.00
76732;BME280;65656;51.130;13.658;2023-07-29T20:24:41;98617.03;;;15.22;100.00
76732;BME280;65656;51.130;13.658;2023-07-29T20:28:42;98623.75;;;15.16;100.00
76732;BME280;65656;51.130;13.658;2023-07-29T20:32:44;98628.94;;;15.17;100.00
76732;BME280;65656;51.130;13.658;2023-07-29T20:36:47;98637.19;;;15.03;100.00
76732;BME280;65656;51.130;13.658;2023-07-29T20:40:50;98642.25;;;14.96;100.00
76732;BME280;65656;51.130;13.658;2023-07-29T20:44:51;98644.25;;;14.91;100.00
76732;BME280;65656;51.130;13.658;2023-07-29T20:48:53;98643.59;;;14.80;100.00
76732;BME280;65656;51.130;13.658;2023-07-29T20:52:56;98646.75;;;14.68;100.00
76732;BME280;65656;51.130;13.658;2023-07-29T20:56:57;98644.38;;;14.62;100.00
76732;BME280;65656;51.130;13.658;2023-07-29T21:00:59;98651.00;;;14.61;100.00
76732;BME280;65656;51.130;13.658;2023-07-29T21:05:00;98652.41;;;14.58;100.00